sensor_id;sensor_type;location;lat;lon;timestamp;temperature;humidity
10828;DHT22;5467;59.334;13.512;2022-12-05T00:00:25;-4.20;99.90
10828;DHT22;5467;59.334;13.512;2022-12-05T00:02:52;-4.10;99.90
10828;DHT22;5467;59.334;13.512;2022-12-05T00:05:19;-4.10;99.90
10828;DHT22;5467;59.334;13.512;2022-12-05T00:07:46;-4.10;99.90
10828;DHT22;5467;59.334;13.512;2022-12-05T00:10:13;-4.10;99.90
10828;DHT22;5467;59.334;13.512;2022-12-05T00:12:42;-4.20;99.90
10828;DHT22;5467;59.334;13.512;2022-12-05T00:15:09;-4.20;99.90
10828;DHT22;5467;59.334;13.512;2022-12-05T00:17:37;-4.20;99.90
10828;DHT22;5467;59.334;13.512;2022-12-05T00:20:06;-4.10;99.90
10828;DHT22;5467;59.334;13.512;2022-12-05T00:22:34;-4.10;99.90
10828;DHT22;5467;59.334;13.512;2022-12-05T00:25:03;-4.20;99.90
10828;DHT22;5467;59.334;13.512;2022-12-05T00:27:30;-4.30;99.90
10828;DHT22;5467;59.334;13.512;2022-12-05T00:29:59;-4.20;99.90
10828;DHT22;5467;59.334;13.512;2022-12-05T00:32:28;-4.30;99.90
10828;DHT22;5467;59.334;13.512;2022-12-05T00:34:55;-4.20;99.90
10828;DHT22;5467;59.334;13.512;2022-12-05T00:37:22;-4.20;99.90
10828;DHT22;5467;59.334;13.512;2022-12-05T00:39:49;-4.20;99.90
10828;DHT22;5467;59.334;13.512;2022-12-05T00:42:16;-4.30;99.90
10828;DHT22;5467;59.334;13.512;2022-12-05T00:44:43;-4.30;99.90
10828;DHT22;5467;59.334;13.512;2022-12-05T00:47:12;-4.40;99.90
10828;DHT22;5467;59.334;13.512;2022-12-05T00:49:38;-4.30;99.90
10828;DHT22;5467;59.334;13.512;2022-12-05T00:52:05;-4.40;99.90
10828;DHT22;5467;59.334;13.512;2022-12-05T00:54:32;-4.30;99.90
10828;DHT22;5467;59.334;13.512;2022-12-05T00:56:59;-4.30;99.90
10828;DHT22;5467;59.334;13.512;2022-12-05T00:59:26;-4.30;99.90
10828;DHT22;5467;59.334;13.512;2022-12-05T01:01:53;-4.30;99.90
10828;DHT22;5467;59.334;13.512;2022-12-05T01:04:23;-4.30;99.90
10828;DHT22;5467;59.334;13.512;2022-12-05T01:06:53;-4.50;99.90
10828;DHT22;5467;59.334;13.512;2022-12-05T01:09:21;-4.40;99.90
10828;DHT22;5467;59.334;13.512;2022-12-05T01:11:48;-4.30;99.90
10828;DHT22;5467;59.334;13.512;2022-12-05T01:14:18;-4.30;99.90
10828;DHT22;5467;59.334;13.512;2022-12-05T01:16:46;-4.40;99.90
10828;DHT22;5467;59.334;13.512;2022-12-05T01:19:15;-4.40;99.90
10828;DHT22;5467;59.334;13.512;2022-12-05T01:21:44;-4.30;99.90
10828;DHT22;5467;59.334;13.512;2022-12-05T01:24:13;-4.30;99.90
10828;DHT22;5467;59.334;13.512;2022-12-05T01:26:41;-4.20;99.90
10828;DHT22;5467;59.334;13.512;2022-12-05T01:29:08;-4.30;99.90
10828;DHT22;5467;59.334;13.512;2022-12-05T01:31:36;-4.30;99.90
10828;DHT22;5467;59.334;13.512;2022-12-05T01:34:05;-4.30;99.90
10828;DHT22;5467;59.334;13.512;2022-12-05T01:36:32;-4.20;99.90
10828;DHT22;5467;59.334;13.512;2022-12-05T01:39:00;-4.30;99.90
10828;DHT22;5467;59.334;13.512;2022-12-05T01:41:30;-4.30;99.90
10828;DHT22;5467;59.334;13.512;2022-12-05T01:44:00;-4.20;99.90
10828;DHT22;5467;59.334;13.512;2022-12-05T01:46:29;-4.20;99.90
10828;DHT22;5467;59.334;13.512;2022-12-05T01:49:00;-4.20;99.90
10828;DHT22;5467;59.334;13.512;2022-12-05T01:51:29;-4.20;99.90
10828;DHT22;5467;59.334;13.512;2022-12-05T01:53:56;-4.10;99.90
10828;DHT22;5467;59.334;13.512;2022-12-05T01:56:25;-4.00;99.90
10828;DHT22;5467;59.334;13.512;2022-12-05T01:58:53;-4.00;99.90
10828;DHT22;5467;59.334;13.512;2022-12-05T02:01:21;-4.00;99.90
10828;DHT22;5467;59.334;13.512;2022-12-05T02:03:50;-4.20;99.90
10828;DHT22;5467;59.334;13.512;2022-12-05T02:06:19;-4.20;99.90
10828;DHT22;5467;59.334;13.512;2022-12-05T02:08:47;-4.20;99.90
10828;DHT22;5467;59.334;13.512;2022-12-05T02:11:15;-4.00;99.90
10828;DHT22;5467;59.334;13.512;2022-12-05T02:13:55;-4.10;99.90
10828;DHT22;5467;59.334;13.512;2022-12-05T02:16:33;-4.10;99.90
10828;DHT22;5467;59.334;13.512;2022-12-05T02:19:13;-4.10;99.90
10828;DHT22;5467;59.334;13.512;2022-12-05T02:24:58;-4.00;99.90
10828;DHT22;5467;59.334;13.512;2022-12-05T02:27:54;-4.00;99.90
10828;DHT22;5467;59.334;13.512;2022-12-05T02:30:31;-3.90;99.90
10828;DHT22;5467;59.334;13.512;2022-12-05T02:33:07;-3.80;99.90
10828;DHT22;5467;59.334;13.512;2022-12-05T02:35:47;-3.70;99.90
10828;DHT22;5467;59.334;13.512;2022-12-05T02:38:23;-3.80;99.90
10828;DHT22;5467;59.334;13.512;2022-12-05T02:40:58;-4.00;99.90
10828;DHT22;5467;59.334;13.512;2022-12-05T02:43:31;-4.00;99.90
10828;DHT22;5467;59.334;13.512;2022-12-05T02:46:05;-3.90;99.90
10828;DHT22;5467;59.334;13.512;2022-12-05T02:48:35;-3.90;99.90
10828;DHT22;5467;59.334;13.512;2022-12-05T02:51:04;-3.90;99.90
10828;DHT22;5467;59.334;13.512;2022-12-05T02:53:34;-3.90;99.90
10828;DHT22;5467;59.334;13.512;2022-12-05T02:56:03;-3.90;99.90
10828;DHT22;5467;59.334;13.512;2022-12-05T02:58:33;-3.90;99.90
10828;DHT22;5467;59.334;13.512;2022-12-05T03:01:03;-3.80;99.90
10828;DHT22;5467;59.334;13.512;2022-12-05T03:03:30;-3.70;99.90
10828;DHT22;5467;59.334;13.512;2022-12-05T03:06:02;-3.80;99.90
10828;DHT22;5467;59.334;13.512;2022-12-05T03:08:34;-3.90;99.90
10828;DHT22;5467;59.334;13.512;2022-12-05T03:11:03;-3.90;99.90
10828;DHT22;5467;59.334;13.512;2022-12-05T03:13:33;-3.80;99.90
10828;DHT22;5467;59.334;13.512;2022-12-05T03:16:06;-3.70;99.90
10828;DHT22;5467;59.334;13.512;2022-12-05T03:18:36;-3.60;99.90
10828;DHT22;5467;59.334;13.512;2022-12-05T03:21:09;-3.50;99.90
10828;DHT22;5467;59.334;13.512;2022-12-05T03:23:42;-3.60;99.90
10828;DHT22;5467;59.334;13.512;2022-12-05T03:26:19;-3.80;99.90
10828;DHT22;5467;59.334;13.512;2022-12-05T03:28:53;-3.80;99.90
10828;DHT22;5467;59.334;13.512;2022-12-05T03:31:32;-3.80;99.90
10828;DHT22;5467;59.334;13.512;2022-12-05T03:34:02;-3.90;99.90
10828;DHT22;5467;59.334;13.512;2022-12-05T03:36:37;-4.00;99.90
10828;DHT22;5467;59.334;13.512;2022-12-05T03:39:09;-4.00;99.90
10828;DHT22;5467;59.334;13.512;2022-12-05T03:41:40;-3.90;99.90
10828;DHT22;5467;59.334;13.512;2022-12-05T03:44:11;-3.90;99.90
10828;DHT22;5467;59.334;13.512;2022-12-05T03:46:45;-4.00;99.90
10828;DHT22;5467;59.334;13.512;2022-12-05T03:49:18;-3.80;99.90
10828;DHT22;5467;59.334;13.512;2022-12-05T03:51:51;-3.70;99.90
10828;DHT22;5467;59.334;13.512;2022-12-05T03:54:23;-3.80;99.90
10828;DHT22;5467;59.334;13.512;2022-12-05T03:56:54;-3.80;99.90
10828;DHT22;5467;59.334;13.512;2022-12-05T03:59:29;-3.90;99.90
10828;DHT22;5467;59.334;13.512;2022-12-05T04:02:03;-3.90;99.90
10828;DHT22;5467;59.334;13.512;2022-12-05T04:04:35;-3.90;99.90
10828;DHT22;5467;59.334;13.512;2022-12-05T04:07:05;-3.90;99.90
10828;DHT22;5467;59.334;13.512;2022-12-05T04:09:36;-3.80;99.90
10828;DHT22;5467;59.334;13.512;2022-12-05T04:12:08;-3.80;99.90
10828;DHT22;5467;59.334;13.512;2022-12-05T04:14:40;-3.80;99.90
10828;DHT22;5467;59.334;13.512;2022-12-05T04:17:14;-3.80;99.90
10828;DHT22;5467;59.334;13.512;2022-12-05T04:19:46;-3.70;99.90
10828;DHT22;5467;59.334;13.512;2022-12-05T04:22:31;-3.70;99.90
10828;DHT22;5467;59.334;13.512;2022-12-05T04:25:01;-3.70;99.90
10828;DHT22;5467;59.334;13.512;2022-12-05T04:27:51;-3.70;99.90
10828;DHT22;5467;59.334;13.512;2022-12-05T04:30:21;-3.60;99.90
10828;DHT22;5467;59.334;13.512;2022-12-05T04:32:54;-3.60;99.90
10828;DHT22;5467;59.334;13.512;2022-12-05T04:35:29;-3.60;99.90
10828;DHT22;5467;59.334;13.512;2022-12-05T04:38:03;-3.60;99.90
10828;DHT22;5467;59.334;13.512;2022-12-05T04:40:36;-3.70;99.90
10828;DHT22;5467;59.334;13.512;2022-12-05T04:43:04;-3.70;99.90
10828;DHT22;5467;59.334;13.512;2022-12-05T04:45:32;-3.70;99.90
10828;DHT22;5467;59.334;13.512;2022-12-05T04:48:05;-3.70;99.90
10828;DHT22;5467;59.334;13.512;2022-12-05T04:50:34;-3.60;99.90
10828;DHT22;5467;59.334;13.512;2022-12-05T04:53:04;-3.70;99.90
10828;DHT22;5467;59.334;13.512;2022-12-05T04:55:34;-3.70;99.90
10828;DHT22;5467;59.334;13.512;2022-12-05T04:58:06;-3.70;99.90
10828;DHT22;5467;59.334;13.512;2022-12-05T05:00:38;-3.70;99.90
10828;DHT22;5467;59.334;13.512;2022-12-05T05:03:17;-3.70;99.90
10828;DHT22;5467;59.334;13.512;2022-12-05T05:05:46;-3.60;99.90
10828;DHT22;5467;59.334;13.512;2022-12-05T05:08:18;-3.70;99.90
10828;DHT22;5467;59.334;13.512;2022-12-05T05:10:53;-3.70;99.90
10828;DHT22;5467;59.334;13.512;2022-12-05T05:13:23;-3.70;99.90
10828;DHT22;5467;59.334;13.512;2022-12-05T05:15:50;-3.70;99.90
10828;DHT22;5467;59.334;13.512;2022-12-05T05:18:18;-3.70;99.90
10828;DHT22;5467;59.334;13.512;2022-12-05T05:20:45;-3.70;99.90
10828;DHT22;5467;59.334;13.512;2022-12-05T05:23:12;-3.70;99.90
10828;DHT22;5467;59.334;13.512;2022-12-05T05:25:39;-3.70;99.90
10828;DHT22;5467;59.334;13.512;2022-12-05T05:28:06;-3.70;99.90
10828;DHT22;5467;59.334;13.512;2022-12-05T05:30:33;-3.80;99.90
10828;DHT22;5467;59.334;13.512;2022-12-05T05:33:01;-3.60;99.90
10828;DHT22;5467;59.334;13.512;2022-12-05T05:35:29;-3.70;99.90
10828;DHT22;5467;59.334;13.512;2022-12-05T05:37:56;-3.80;99.90
10828;DHT22;5467;59.334;13.512;2022-12-05T05:40:23;-3.80;99.90
10828;DHT22;5467;59.334;13.512;2022-12-05T05:42:50;-3.70;99.90
10828;DHT22;5467;59.334;13.512;2022-12-05T05:45:17;-3.60;99.90
10828;DHT22;5467;59.334;13.512;2022-12-05T05:47:45;-3.60;99.90
10828;DHT22;5467;59.334;13.512;2022-12-05T05:50:13;-3.60;99.90
10828;DHT22;5467;59.334;13.512;2022-12-05T05:52:42;-3.60;99.90
10828;DHT22;5467;59.334;13.512;2022-12-05T05:55:09;-3.60;99.90
10828;DHT22;5467;59.334;13.512;2022-12-05T05:57:36;-3.70;99.90
10828;DHT22;5467;59.334;13.512;2022-12-05T06:00:05;-3.70;99.90
10828;DHT22;5467;59.334;13.512;2022-12-05T06:02:34;-3.80;99.90
10828;DHT22;5467;59.334;13.512;2022-12-05T06:05:01;-3.70;99.90
10828;DHT22;5467;59.334;13.512;2022-12-05T06:07:29;-3.60;99.90
10828;DHT22;5467;59.334;13.512;2022-12-05T06:09:57;-3.60;99.90
10828;DHT22;5467;59.334;13.512;2022-12-05T06:12:24;-3.60;99.90
10828;DHT22;5467;59.334;13.512;2022-12-05T06:14:51;-3.60;99.90
10828;DHT22;5467;59.334;13.512;2022-12-05T06:17:18;-3.50;99.90
10828;DHT22;5467;59.334;13.512;2022-12-05T06:19:45;-3.60;99.90
10828;DHT22;5467;59.334;13.512;2022-12-05T06:22:12;-3.60;99.90
10828;DHT22;5467;59.334;13.512;2022-12-05T06:24:39;-3.50;99.90
10828;DHT22;5467;59.334;13.512;2022-12-05T06:27:08;-3.50;99.90
10828;DHT22;5467;59.334;13.512;2022-12-05T06:29:35;-3.60;99.90
10828;DHT22;5467;59.334;13.512;2022-12-05T06:32:02;-3.50;99.90
10828;DHT22;5467;59.334;13.512;2022-12-05T06:34:29;-3.50;99.90
10828;DHT22;5467;59.334;13.512;2022-12-05T06:36:57;-3.50;99.90
10828;DHT22;5467;59.334;13.512;2022-12-05T06:39:24;-3.40;99.90
10828;DHT22;5467;59.334;13.512;2022-12-05T06:41:51;-3.40;99.90
10828;DHT22;5467;59.334;13.512;2022-12-05T06:44:20;-3.50;99.90
10828;DHT22;5467;59.334;13.512;2022-12-05T06:46:49;-3.50;99.90
10828;DHT22;5467;59.334;13.512;2022-12-05T06:49:16;-3.50;99.90
10828;DHT22;5467;59.334;13.512;2022-12-05T06:51:43;-3.50;99.90
10828;DHT22;5467;59.334;13.512;2022-12-05T06:54:11;-3.40;99.90
10828;DHT22;5467;59.334;13.512;2022-12-05T06:56:38;-3.40;99.90
10828;DHT22;5467;59.334;13.512;2022-12-05T06:59:05;-3.50;99.90
10828;DHT22;5467;59.334;13.512;2022-12-05T07:01:33;-3.50;99.90
10828;DHT22;5467;59.334;13.512;2022-12-05T07:04:09;-3.50;99.90
10828;DHT22;5467;59.334;13.512;2022-12-05T07:06:38;-3.50;99.90
10828;DHT22;5467;59.334;13.512;2022-12-05T07:09:06;-3.50;99.90
10828;DHT22;5467;59.334;13.512;2022-12-05T07:11:33;-3.60;99.90
10828;DHT22;5467;59.334;13.512;2022-12-05T07:14:00;-3.50;99.90
10828;DHT22;5467;59.334;13.512;2022-12-05T07:16:28;-3.40;99.90
10828;DHT22;5467;59.334;13.512;2022-12-05T07:18:56;-3.50;99.90
10828;DHT22;5467;59.334;13.512;2022-12-05T07:21:23;-3.40;99.90
10828;DHT22;5467;59.334;13.512;2022-12-05T07:23:51;-3.40;99.90
10828;DHT22;5467;59.334;13.512;2022-12-05T07:26:19;-3.40;99.90
10828;DHT22;5467;59.334;13.512;2022-12-05T07:28:48;-3.40;99.90
10828;DHT22;5467;59.334;13.512;2022-12-05T07:31:16;-3.40;99.90
10828;DHT22;5467;59.334;13.512;2022-12-05T07:33:43;-3.50;99.90
10828;DHT22;5467;59.334;13.512;2022-12-05T07:36:14;-3.50;99.90
10828;DHT22;5467;59.334;13.512;2022-12-05T07:38:42;-3.50;99.90
10828;DHT22;5467;59.334;13.512;2022-12-05T07:41:10;-3.50;99.90
10828;DHT22;5467;59.334;13.512;2022-12-05T07:43:40;-3.50;99.90
10828;DHT22;5467;59.334;13.512;2022-12-05T07:46:08;-3.40;99.90
10828;DHT22;5467;59.334;13.512;2022-12-05T07:48:37;-3.40;99.90
10828;DHT22;5467;59.334;13.512;2022-12-05T07:51:05;-3.40;99.90
10828;DHT22;5467;59.334;13.512;2022-12-05T07:53:34;-3.40;99.90
10828;DHT22;5467;59.334;13.512;2022-12-05T07:56:04;-3.50;99.90
10828;DHT22;5467;59.334;13.512;2022-12-05T07:58:33;-3.40;99.90
10828;DHT22;5467;59.334;13.512;2022-12-05T08:01:05;-3.50;99.90
10828;DHT22;5467;59.334;13.512;2022-12-05T08:03:33;-3.50;99.90
10828;DHT22;5467;59.334;13.512;2022-12-05T08:06:01;-3.50;99.90
10828;DHT22;5467;59.334;13.512;2022-12-05T08:08:29;-3.40;99.90
10828;DHT22;5467;59.334;13.512;2022-12-05T08:11:02;-3.40;99.90
10828;DHT22;5467;59.334;13.512;2022-12-05T08:13:29;-3.40;99.90
10828;DHT22;5467;59.334;13.512;2022-12-05T08:15:59;-3.20;99.90
10828;DHT22;5467;59.334;13.512;2022-12-05T08:18:27;-3.40;99.90
10828;DHT22;5467;59.334;13.512;2022-12-05T08:20:54;-3.40;99.90
10828;DHT22;5467;59.334;13.512;2022-12-05T08:23:20;-3.40;99.90
10828;DHT22;5467;59.334;13.512;2022-12-05T08:25:47;-3.50;99.90
10828;DHT22;5467;59.334;13.512;2022-12-05T08:28:16;-3.50;99.90
10828;DHT22;5467;59.334;13.512;2022-12-05T08:30:43;-3.50;99.90
10828;DHT22;5467;59.334;13.512;2022-12-05T08:33:10;-3.50;99.90
10828;DHT22;5467;59.334;13.512;2022-12-05T08:35:37;-3.40;99.90
10828;DHT22;5467;59.334;13.512;2022-12-05T08:38:04;-3.50;99.90
10828;DHT22;5467;59.334;13.512;2022-12-05T08:40:31;-3.50;99.90
10828;DHT22;5467;59.334;13.512;2022-12-05T08:42:58;-3.50;99.90
10828;DHT22;5467;59.334;13.512;2022-12-05T08:45:27;-3.50;99.90
10828;DHT22;5467;59.334;13.512;2022-12-05T08:47:56;-3.40;99.90
10828;DHT22;5467;59.334;13.512;2022-12-05T08:50:23;-3.40;99.90
10828;DHT22;5467;59.334;13.512;2022-12-05T08:52:49;-3.50;99.90
10828;DHT22;5467;59.334;13.512;2022-12-05T08:55:16;-3.40;99.90
10828;DHT22;5467;59.334;13.512;2022-12-05T08:57:43;-3.30;99.90
10828;DHT22;5467;59.334;13.512;2022-12-05T09:00:11;-3.30;99.90
10828;DHT22;5467;59.334;13.512;2022-12-05T09:02:40;-3.30;99.90
10828;DHT22;5467;59.334;13.512;2022-12-05T09:05:08;-3.30;99.90
10828;DHT22;5467;59.334;13.512;2022-12-05T09:07:35;-3.40;99.90
10828;DHT22;5467;59.334;13.512;2022-12-05T09:10:02;-3.40;99.90
10828;DHT22;5467;59.334;13.512;2022-12-05T09:12:29;-3.40;99.90
10828;DHT22;5467;59.334;13.512;2022-12-05T09:14:56;-3.40;99.90
10828;DHT22;5467;59.334;13.512;2022-12-05T09:17:23;-3.30;99.90
10828;DHT22;5467;59.334;13.512;2022-12-05T09:19:51;-3.20;99.90
10828;DHT22;5467;59.334;13.512;2022-12-05T09:22:18;-3.30;99.90
10828;DHT22;5467;59.334;13.512;2022-12-05T09:24:47;-3.40;99.90
10828;DHT22;5467;59.334;13.512;2022-12-05T09:27:14;-3.30;99.90
10828;DHT22;5467;59.334;13.512;2022-12-05T09:29:41;-3.30;99.90
10828;DHT22;5467;59.334;13.512;2022-12-05T09:32:09;-3.30;99.90
10828;DHT22;5467;59.334;13.512;2022-12-05T09:34:37;-3.40;99.90
10828;DHT22;5467;59.334;13.512;2022-12-05T09:37:06;-3.30;99.90
10828;DHT22;5467;59.334;13.512;2022-12-05T09:39:33;-3.30;99.90
10828;DHT22;5467;59.334;13.512;2022-12-05T09:42:22;-3.30;99.90
10828;DHT22;5467;59.334;13.512;2022-12-05T09:45:02;-3.20;99.90
10828;DHT22;5467;59.334;13.512;2022-12-05T09:47:35;-3.20;99.90
10828;DHT22;5467;59.334;13.512;2022-12-05T09:50:13;-3.20;99.90
10828;DHT22;5467;59.334;13.512;2022-12-05T09:52:59;-3.20;99.90
10828;DHT22;5467;59.334;13.512;2022-12-05T09:55:35;-3.10;99.90
10828;DHT22;5467;59.334;13.512;2022-12-05T09:58:04;-3.10;99.90
10828;DHT22;5467;59.334;13.512;2022-12-05T10:00:38;-3.10;99.90
10828;DHT22;5467;59.334;13.512;2022-12-05T10:03:18;-3.00;99.90
10828;DHT22;5467;59.334;13.512;2022-12-05T10:05:50;-2.90;99.90
10828;DHT22;5467;59.334;13.512;2022-12-05T10:08:27;-2.90;99.90
10828;DHT22;5467;59.334;13.512;2022-12-05T10:10:59;-2.80;99.90
10828;DHT22;5467;59.334;13.512;2022-12-05T10:13:39;-2.90;99.90
10828;DHT22;5467;59.334;13.512;2022-12-05T10:16:15;-3.00;99.90
10828;DHT22;5467;59.334;13.512;2022-12-05T10:18:45;-3.00;99.90
10828;DHT22;5467;59.334;13.512;2022-12-05T10:21:17;-3.00;99.90
10828;DHT22;5467;59.334;13.512;2022-12-05T10:23:53;-3.10;99.90
10828;DHT22;5467;59.334;13.512;2022-12-05T10:26:24;-3.00;99.90
10828;DHT22;5467;59.334;13.512;2022-12-05T10:28:56;-2.90;99.90
10828;DHT22;5467;59.334;13.512;2022-12-05T10:31:29;-2.90;99.90
10828;DHT22;5467;59.334;13.512;2022-12-05T10:34:02;-3.10;99.90
10828;DHT22;5467;59.334;13.512;2022-12-05T10:36:30;-3.10;99.90
10828;DHT22;5467;59.334;13.512;2022-12-05T10:38:59;-3.00;99.90
10828;DHT22;5467;59.334;13.512;2022-12-05T10:41:26;-3.10;99.90
10828;DHT22;5467;59.334;13.512;2022-12-05T10:43:55;-3.00;99.90
10828;DHT22;5467;59.334;13.512;2022-12-05T10:46:24;-3.00;99.90
10828;DHT22;5467;59.334;13.512;2022-12-05T10:48:52;-2.90;99.90
10828;DHT22;5467;59.334;13.512;2022-12-05T10:51:25;-3.00;99.90
10828;DHT22;5467;59.334;13.512;2022-12-05T10:53:52;-3.00;99.90
10828;DHT22;5467;59.334;13.512;2022-12-05T10:56:41;-2.90;99.90
10828;DHT22;5467;59.334;13.512;2022-12-05T10:59:10;-2.80;99.90
10828;DHT22;5467;59.334;13.512;2022-12-05T11:01:43;-3.00;99.90
10828;DHT22;5467;59.334;13.512;2022-12-05T11:04:19;-3.10;99.90
10828;DHT22;5467;59.334;13.512;2022-12-05T11:06:53;-3.00;99.90
10828;DHT22;5467;59.334;13.512;2022-12-05T11:09:23;-2.90;99.90
10828;DHT22;5467;59.334;13.512;2022-12-05T11:12:02;-2.90;99.90
10828;DHT22;5467;59.334;13.512;2022-12-05T11:14:31;-3.00;99.90
10828;DHT22;5467;59.334;13.512;2022-12-05T11:17:03;-2.90;99.90
10828;DHT22;5467;59.334;13.512;2022-12-05T11:19:31;-2.90;99.90
10828;DHT22;5467;59.334;13.512;2022-12-05T11:21:59;-2.80;99.90
10828;DHT22;5467;59.334;13.512;2022-12-05T11:24:28;-2.80;99.90
10828;DHT22;5467;59.334;13.512;2022-12-05T11:26:56;-2.80;99.90
10828;DHT22;5467;59.334;13.512;2022-12-05T11:29:33;-2.90;99.90
10828;DHT22;5467;59.334;13.512;2022-12-05T11:32:01;-2.90;99.90
10828;DHT22;5467;59.334;13.512;2022-12-05T11:34:32;-2.90;99.90
10828;DHT22;5467;59.334;13.512;2022-12-05T11:37:05;-2.80;99.90
10828;DHT22;5467;59.334;13.512;2022-12-05T11:39:35;-2.70;99.90
10828;DHT22;5467;59.334;13.512;2022-12-05T11:42:18;-2.70;99.90
10828;DHT22;5467;59.334;13.512;2022-12-05T11:45:15;-2.70;99.90
10828;DHT22;5467;59.334;13.512;2022-12-05T11:47:57;-2.70;99.90
10828;DHT22;5467;59.334;13.512;2022-12-05T11:50:39;-2.70;99.90
10828;DHT22;5467;59.334;13.512;2022-12-05T11:53:27;-2.70;99.90
10828;DHT22;5467;59.334;13.512;2022-12-05T11:56:02;-2.80;99.90
10828;DHT22;5467;59.334;13.512;2022-12-05T11:58:51;-2.80;99.90
10828;DHT22;5467;59.334;13.512;2022-12-05T12:01:29;-2.80;99.90
10828;DHT22;5467;59.334;13.512;2022-12-05T12:04:13;-2.70;99.90
10828;DHT22;5467;59.334;13.512;2022-12-05T12:06:50;-2.60;99.90
10828;DHT22;5467;59.334;13.512;2022-12-05T12:09:33;-2.60;99.90
10828;DHT22;5467;59.334;13.512;2022-12-05T12:12:04;-2.60;99.90
10828;DHT22;5467;59.334;13.512;2022-12-05T12:14:38;-2.60;99.90
10828;DHT22;5467;59.334;13.512;2022-12-05T12:17:16;-2.70;99.90
10828;DHT22;5467;59.334;13.512;2022-12-05T12:20:02;-2.60;99.90
10828;DHT22;5467;59.334;13.512;2022-12-05T12:22:48;-2.50;99.90
10828;DHT22;5467;59.334;13.512;2022-12-05T12:25:24;-2.50;99.90
10828;DHT22;5467;59.334;13.512;2022-12-05T12:28:02;-2.50;99.90
10828;DHT22;5467;59.334;13.512;2022-12-05T12:30:42;-2.50;99.90
10828;DHT22;5467;59.334;13.512;2022-12-05T12:33:14;-2.40;99.90
10828;DHT22;5467;59.334;13.512;2022-12-05T12:35:49;-2.50;99.90
10828;DHT22;5467;59.334;13.512;2022-12-05T12:41:53;-2.40;99.90
10828;DHT22;5467;59.334;13.512;2022-12-05T12:47:27;-2.30;99.90
10828;DHT22;5467;59.334;13.512;2022-12-05T12:50:04;-2.30;99.90
10828;DHT22;5467;59.334;13.512;2022-12-05T12:52:51;-2.30;99.90
10828;DHT22;5467;59.334;13.512;2022-12-05T12:55:23;-2.40;99.90
10828;DHT22;5467;59.334;13.512;2022-12-05T12:58:05;-2.40;99.90
10828;DHT22;5467;59.334;13.512;2022-12-05T13:00:48;-2.40;99.90
10828;DHT22;5467;59.334;13.512;2022-12-05T13:03:20;-2.20;99.90
10828;DHT22;5467;59.334;13.512;2022-12-05T13:05:53;-2.30;99.90
10828;DHT22;5467;59.334;13.512;2022-12-05T13:08:26;-2.40;99.90
10828;DHT22;5467;59.334;13.512;2022-12-05T13:10:55;-2.50;99.90
10828;DHT22;5467;59.334;13.512;2022-12-05T13:13:31;-2.40;99.90
10828;DHT22;5467;59.334;13.512;2022-12-05T13:16:03;-2.40;99.90
10828;DHT22;5467;59.334;13.512;2022-12-05T13:18:32;-2.40;99.90
10828;DHT22;5467;59.334;13.512;2022-12-05T13:21:05;-2.40;99.90
10828;DHT22;5467;59.334;13.512;2022-12-05T13:23:35;-2.50;99.90
10828;DHT22;5467;59.334;13.512;2022-12-05T13:26:08;-2.60;99.90
10828;DHT22;5467;59.334;13.512;2022-12-05T13:28:38;-2.50;99.90
10828;DHT22;5467;59.334;13.512;2022-12-05T13:31:12;-2.50;99.90
10828;DHT22;5467;59.334;13.512;2022-12-05T13:33:43;-2.50;99.90
10828;DHT22;5467;59.334;13.512;2022-12-05T13:36:14;-2.50;99.90
10828;DHT22;5467;59.334;13.512;2022-12-05T13:39:01;-2.60;99.90
10828;DHT22;5467;59.334;13.512;2022-12-05T13:41:49;-2.50;99.90
10828;DHT22;5467;59.334;13.512;2022-12-05T13:44:40;-2.50;99.90
10828;DHT22;5467;59.334;13.512;2022-12-05T13:47:25;-2.50;99.90
10828;DHT22;5467;59.334;13.512;2022-12-05T13:49:55;-2.60;99.90
10828;DHT22;5467;59.334;13.512;2022-12-05T13:52:28;-2.50;99.90
10828;DHT22;5467;59.334;13.512;2022-12-05T13:54:59;-2.60;99.90
10828;DHT22;5467;59.334;13.512;2022-12-05T13:57:49;-2.60;99.90
10828;DHT22;5467;59.334;13.512;2022-12-05T14:00:29;-2.50;99.90
10828;DHT22;5467;59.334;13.512;2022-12-05T14:02:58;-2.50;99.90
10828;DHT22;5467;59.334;13.512;2022-12-05T14:05:42;-2.50;99.90
10828;DHT22;5467;59.334;13.512;2022-12-05T14:08:51;-2.70;99.90
10828;DHT22;5467;59.334;13.512;2022-12-05T14:11:18;-2.60;99.90
10828;DHT22;5467;59.334;13.512;2022-12-05T14:13:46;-2.70;99.90
10828;DHT22;5467;59.334;13.512;2022-12-05T14:16:40;-2.70;99.90
10828;DHT22;5467;59.334;13.512;2022-12-05T14:19:34;-2.70;99.90
10828;DHT22;5467;59.334;13.512;2022-12-05T14:22:21;-2.70;99.90
10828;DHT22;5467;59.334;13.512;2022-12-05T14:24:57;-2.80;99.90
10828;DHT22;5467;59.334;13.512;2022-12-05T14:27:41;-2.90;99.90
10828;DHT22;5467;59.334;13.512;2022-12-05T14:30:20;-2.70;99.90
10828;DHT22;5467;59.334;13.512;2022-12-05T14:32:49;-2.70;99.90
10828;DHT22;5467;59.334;13.512;2022-12-05T14:35:19;-2.70;99.90
10828;DHT22;5467;59.334;13.512;2022-12-05T14:37:52;-2.70;99.90
10828;DHT22;5467;59.334;13.512;2022-12-05T14:40:28;-2.70;99.90
10828;DHT22;5467;59.334;13.512;2022-12-05T14:42:57;-2.60;99.90
10828;DHT22;5467;59.334;13.512;2022-12-05T14:45:31;-2.60;99.90
10828;DHT22;5467;59.334;13.512;2022-12-05T14:48:00;-2.60;99.90
10828;DHT22;5467;59.334;13.512;2022-12-05T14:50:48;-2.70;99.90
10828;DHT22;5467;59.334;13.512;2022-12-05T14:53:22;-2.70;99.90
10828;DHT22;5467;59.334;13.512;2022-12-05T14:55:55;-2.70;99.90
10828;DHT22;5467;59.334;13.512;2022-12-05T14:58:31;-2.70;99.90
10828;DHT22;5467;59.334;13.512;2022-12-05T15:01:02;-2.60;99.90
10828;DHT22;5467;59.334;13.512;2022-12-05T15:03:34;-2.60;99.90
10828;DHT22;5467;59.334;13.512;2022-12-05T15:06:04;-2.60;99.90
10828;DHT22;5467;59.334;13.512;2022-12-05T15:08:38;-2.60;99.90
10828;DHT22;5467;59.334;13.512;2022-12-05T15:11:14;-2.70;99.90
10828;DHT22;5467;59.334;13.512;2022-12-05T15:13:54;-2.60;99.90
10828;DHT22;5467;59.334;13.512;2022-12-05T15:16:22;-2.60;99.90
10828;DHT22;5467;59.334;13.512;2022-12-05T15:18:56;-2.60;99.90
10828;DHT22;5467;59.334;13.512;2022-12-05T15:21:30;-2.70;99.90
10828;DHT22;5467;59.334;13.512;2022-12-05T15:23:59;-2.70;99.90
10828;DHT22;5467;59.334;13.512;2022-12-05T15:26:30;-2.70;99.90
10828;DHT22;5467;59.334;13.512;2022-12-05T15:29:03;-2.70;99.90
10828;DHT22;5467;59.334;13.512;2022-12-05T15:31:32;-2.70;99.90
10828;DHT22;5467;59.334;13.512;2022-12-05T15:34:04;-2.70;99.90
10828;DHT22;5467;59.334;13.512;2022-12-05T15:36:34;-2.60;99.90
10828;DHT22;5467;59.334;13.512;2022-12-05T15:39:16;-2.70;99.90
10828;DHT22;5467;59.334;13.512;2022-12-05T15:41:45;-2.60;99.90
10828;DHT22;5467;59.334;13.512;2022-12-05T15:44:13;-2.50;99.90
10828;DHT22;5467;59.334;13.512;2022-12-05T15:46:41;-2.50;99.90
10828;DHT22;5467;59.334;13.512;2022-12-05T15:49:16;-2.60;99.90
10828;DHT22;5467;59.334;13.512;2022-12-05T15:51:47;-2.50;99.90
10828;DHT22;5467;59.334;13.512;2022-12-05T15:54:17;-2.50;99.90
10828;DHT22;5467;59.334;13.512;2022-12-05T15:56:50;-2.60;99.90
10828;DHT22;5467;59.334;13.512;2022-12-05T15:59:21;-2.50;99.90
10828;DHT22;5467;59.334;13.512;2022-12-05T16:01:52;-2.50;99.90
10828;DHT22;5467;59.334;13.512;2022-12-05T16:04:25;-2.70;99.90
10828;DHT22;5467;59.334;13.512;2022-12-05T16:06:55;-2.70;99.90